Pagina principale
METAR-TAF:

METAR-TAF

Aeroporti :

Alpnach, Svizzera

latitudine: 46-56-19N, longitudine: 8-17-03E, altezza: 440 m

Osservazione

Il bollettino è stato emesso 15 minuti fa, alle 10:20 UTC
Vento 5 kt da nord/nord-est, variando fra nord e est/nord-est
Temperature 13°C
Umidità 82%
Pressione 1011 hPa
Visibilità 10 km o più
Nubi sparse ad un'altezza di 2500 ft
Cielo coperto ad un'altezza di 4100 ft
pioggia debole

METAR: LSMA 071020Z AUTO 03005KT 360V060 9999NDV -RA SCT025 OVC041 13/10 Q1011 RMK

Ora: 12:35 (10:35 UTC)


TAF: mancante

Osservazioni e previsioni meteorologiche di più di 4000 aeroporti (messaggi METAR e TAF).

Le stazioni disponibili sono rappresentate dai dischi gialli e rossi sulla carta.

Puntare il mouse per vedere il nome della stazione.

Clicca sopra per visualizzare le osservazioni e previsioni meteorologiche.

Per cambiare la mappa : fare clic sui pulsanti verdi con una croce nera per ingrandire, il pulsante verde con un trattino per diminuire, o sulla freccia verde per le mappe adiacenti.


METAR-TAF: